createdAt,value
2023-04-19T00:02:19.696Z,10.24
2023-04-19T00:05:26.914Z,10.18
2023-04-19T00:08:33.297Z,10.52
2023-04-19T00:11:39.483Z,10.63
2023-04-19T00:14:45.582Z,10.62
2023-04-19T00:17:51.606Z,10.16
2023-04-19T00:20:57.185Z,10.15
2023-04-19T00:24:02.756Z,10.01
2023-04-19T00:27:07.368Z,9.99
2023-04-19T00:30:13.681Z,10.18
2023-04-19T00:33:21.097Z,10.19
2023-04-19T00:36:28.289Z,10.23
2023-04-19T00:39:32.828Z,10.35
2023-04-19T00:42:38.593Z,10.49
2023-04-19T00:45:43.288Z,10.59
2023-04-19T00:48:49.537Z,10.78
2023-04-19T00:51:56.121Z,10.36
2023-04-19T00:55:02.592Z,10.29
2023-04-19T00:58:02.762Z,10.23
2023-04-19T01:00:48.256Z,10.30
2023-04-19T01:03:42.864Z,10.40
2023-04-19T01:06:36.300Z,10.45
2023-04-19T01:09:42.617Z,10.52
2023-04-19T01:12:47.872Z,10.43
2023-04-19T01:15:53.854Z,10.30
2023-04-19T01:18:59.229Z,10.30
2023-04-19T01:22:05.323Z,10.27
2023-04-19T01:25:11.657Z,10.29
2023-04-19T01:28:16.763Z,10.36
2023-04-19T01:31:22.596Z,10.43
2023-04-19T01:34:21.763Z,10.55
2023-04-19T01:37:14.369Z,10.47
2023-04-19T01:40:13.690Z,10.57
2023-04-19T01:43:12.316Z,10.45
2023-04-19T01:46:17.989Z,10.66
2023-04-19T01:49:22.724Z,10.59
2023-04-19T01:52:28.324Z,10.30
2023-04-19T01:55:33.844Z,10.29
2023-04-19T01:58:39.552Z,10.34
2023-04-19T02:01:44.957Z,10.49
2023-04-19T02:04:51.323Z,10.66
2023-04-19T02:07:59.457Z,10.85
2023-04-19T02:11:05.691Z,10.81
2023-04-19T02:14:10.496Z,10.81
2023-04-19T02:17:15.889Z,11.15
2023-04-19T02:20:24.490Z,10.91
2023-04-19T02:23:29.884Z,10.92
2023-04-19T02:26:34.719Z,11.00
2023-04-19T02:29:39.606Z,11.13
2023-04-19T02:32:45.251Z,10.63
2023-04-19T02:35:51.195Z,10.56
2023-04-19T02:38:59.102Z,10.41
2023-04-19T02:42:04.599Z,10.43
2023-04-19T02:45:09.719Z,10.46
2023-04-19T02:48:15.224Z,10.54
2023-04-19T02:51:21.079Z,10.70
2023-04-19T02:54:26.633Z,10.65
2023-04-19T02:57:32.568Z,10.52
2023-04-19T03:00:33.296Z,10.66
2023-04-19T03:03:42.141Z,10.64
2023-04-19T03:06:49.246Z,10.56
2023-04-19T03:09:55.690Z,10.56
2023-04-19T03:13:01.827Z,10.49
2023-04-19T03:16:07.926Z,10.51
2023-04-19T03:19:14.053Z,10.49
2023-04-19T03:22:21.780Z,10.43
2023-04-19T03:25:27.345Z,10.40
2023-04-19T03:28:35.383Z,10.44
2023-04-19T03:31:53.006Z,10.39
2023-04-19T03:34:59.118Z,10.40
2023-04-19T03:38:06.645Z,10.46
2023-04-19T03:41:11.901Z,10.54
2023-04-19T03:44:18.878Z,10.61
2023-04-19T03:47:24.874Z,10.69
2023-04-19T03:50:31.104Z,10.62
2023-04-19T03:53:37.088Z,10.56
2023-04-19T03:56:43.399Z,10.63
2023-04-19T03:59:51.232Z,10.72
2023-04-19T04:02:57.326Z,10.93
2023-04-19T04:06:05.966Z,10.96
2023-04-19T04:09:11.231Z,11.04
2023-04-19T04:12:16.665Z,11.06
2023-04-19T04:15:24.842Z,11.09
2023-04-19T04:18:33.713Z,11.24
2023-04-19T04:21:40.777Z,11.22
2023-04-19T04:24:51.958Z,11.59
2023-04-19T04:28:01.614Z,11.88
2023-04-19T04:31:08.840Z,12.09
2023-04-19T04:34:16.949Z,12.30
2023-04-19T04:37:24.908Z,11.98
2023-04-19T04:40:31.465Z,12.20
2023-04-19T04:43:39.128Z,12.40
2023-04-19T04:46:37.803Z,12.59
2023-04-19T04:49:45.211Z,12.79
2023-04-19T04:52:50.009Z,12.63
2023-04-19T04:56:00.971Z,12.82
2023-04-19T04:59:06.759Z,12.68
2023-04-19T05:02:14.329Z,12.62
2023-04-19T05:05:20.539Z,12.84
2023-04-19T05:08:26.908Z,12.56
2023-04-19T05:11:34.674Z,12.86
2023-04-19T05:14:40.649Z,12.69
2023-04-19T05:17:45.953Z,12.51
2023-04-19T05:20:51.210Z,12.48
2023-04-19T05:24:00.202Z,12.27
2023-04-19T05:27:05.513Z,12.46
2023-04-19T05:30:12.239Z,12.27
2023-04-19T05:33:17.815Z,12.03
2023-04-19T05:36:23.615Z,12.15
2023-04-19T05:39:27.993Z,12.31
2023-04-19T05:42:33.031Z,12.47
2023-04-19T05:45:39.386Z,12.71
2023-04-19T05:48:43.866Z,12.68
2023-04-19T05:51:58.352Z,12.90
2023-04-19T05:55:08.711Z,12.78
2023-04-19T05:57:57.209Z,12.93
2023-04-19T06:00:49.754Z,13.01
2023-04-19T06:03:35.359Z,13.20
2023-04-19T06:06:30.495Z,13.12
2023-04-19T06:09:30.779Z,13.13
2023-04-19T06:12:38.265Z,13.36
2023-04-19T06:15:43.606Z,13.39
2023-04-19T06:18:49.504Z,13.43
2023-04-19T06:21:55.783Z,13.61
2023-04-19T06:25:02.399Z,13.56
2023-04-19T06:28:08.106Z,13.67
2023-04-19T06:31:13.659Z,13.66
2023-04-19T06:34:19.870Z,13.53
2023-04-19T06:37:26.557Z,13.75
2023-04-19T06:40:31.436Z,13.99
2023-04-19T06:43:37.366Z,14.16
2023-04-19T06:46:42.628Z,14.46
2023-04-19T06:49:48.301Z,14.66
2023-04-19T06:52:53.377Z,15.02
2023-04-19T06:56:01.632Z,15.01
2023-04-19T06:59:07.733Z,15.11
2023-04-19T07:02:12.813Z,15.01
2023-04-19T07:05:20.014Z,14.78
2023-04-19T07:08:27.890Z,14.65
2023-04-19T07:11:31.460Z,14.47
2023-04-19T07:14:36.607Z,14.62
2023-04-19T07:17:42.738Z,14.47
2023-04-19T07:20:43.162Z,14.61
2023-04-19T07:23:47.173Z,14.56
2023-04-19T07:26:52.894Z,14.64
2023-04-19T07:29:57.135Z,14.73
2023-04-19T07:33:02.625Z,14.60
2023-04-19T07:36:08.011Z,14.57
2023-04-19T07:39:12.681Z,14.38
2023-04-19T07:42:17.535Z,14.38
2023-04-19T07:45:23.175Z,14.19
2023-04-19T07:48:28.856Z,14.24
2023-04-19T07:51:27.893Z,14.10
2023-04-19T07:54:23.060Z,14.23
2023-04-19T07:57:28.430Z,14.28
2023-04-19T08:00:29.490Z,14.35
2023-04-19T08:03:34.332Z,14.37
2023-04-19T08:06:40.320Z,14.35
2023-04-19T08:09:45.583Z,14.67
2023-04-19T08:19:05.485Z,15.21
2023-04-19T08:22:11.402Z,15.38
2023-04-19T08:25:16.821Z,15.72
2023-04-19T08:28:21.777Z,15.55
2023-04-19T08:31:28.265Z,15.52
2023-04-19T08:34:32.879Z,15.47
2023-04-19T08:37:38.449Z,15.64
2023-04-19T08:40:45.315Z,15.89
2023-04-19T08:43:51.145Z,16.00
2023-04-19T08:46:56.909Z,15.92
2023-04-19T08:53:23.725Z,15.90
2023-04-19T08:56:32.047Z,15.82
2023-04-19T08:59:24.290Z,15.93
2023-04-19T09:02:31.022Z,15.97
2023-04-19T09:05:36.450Z,16.03
2023-04-19T09:08:46.072Z,15.92
2023-04-19T09:11:51.717Z,16.15
2023-04-19T09:15:02.367Z,16.31
2023-04-19T09:18:18.036Z,16.44
2023-04-19T09:21:23.544Z,16.54
2023-04-19T09:24:22.449Z,16.28
2023-04-19T09:27:08.248Z,16.14
2023-04-19T09:30:04.281Z,16.29
2023-04-19T09:32:55.393Z,16.38
2023-04-19T09:35:56.269Z,16.60
2023-04-19T09:39:01.072Z,16.55
2023-04-19T09:42:09.078Z,16.78
2023-04-19T09:45:29.242Z,16.52
2023-04-19T09:48:21.626Z,16.60
2023-04-19T09:51:26.881Z,16.84
2023-04-19T09:54:33.887Z,16.86
2023-04-19T09:57:38.898Z,16.88
2023-04-19T10:00:50.048Z,16.88
2023-04-19T10:03:50.955Z,16.96
2023-04-19T10:10:18.781Z,17.06
2023-04-19T10:16:04.836Z,17.29
2023-04-19T10:19:03.899Z,17.23
2023-04-19T10:22:11.188Z,17.21
2023-04-19T10:25:24.427Z,17.15
2023-04-19T10:28:32.076Z,16.99
2023-04-19T10:31:38.817Z,16.69
2023-04-19T10:34:54.107Z,16.44
2023-04-19T10:38:20.239Z,16.42
2023-04-19T10:41:26.944Z,16.52
2023-04-19T10:44:32.478Z,16.51
2023-04-19T10:51:24.162Z,16.44
2023-04-19T10:54:52.441Z,16.69
2023-04-19T10:58:21.922Z,16.78
2023-04-19T11:01:50.427Z,16.45
2023-04-19T11:05:06.960Z,16.55
2023-04-19T11:08:12.663Z,16.48
2023-04-19T11:11:19.957Z,16.08
2023-04-19T11:14:25.976Z,15.93
2023-04-19T11:17:39.028Z,15.72
2023-04-19T11:20:43.978Z,15.60
2023-04-19T11:23:49.898Z,15.50
2023-04-19T11:26:57.876Z,15.28
2023-04-19T11:30:03.619Z,15.02
2023-04-19T11:33:09.753Z,14.97
2023-04-19T11:36:15.572Z,14.95
2023-04-19T11:39:21.555Z,14.97
2023-04-19T11:42:34.234Z,14.92
2023-04-19T11:45:43.097Z,14.85
2023-04-19T11:48:48.602Z,14.39
2023-04-19T11:51:57.197Z,14.32
2023-04-19T11:55:02.630Z,14.37
2023-04-19T11:58:08.068Z,14.50
2023-04-19T12:01:20.457Z,14.49
2023-04-19T12:04:30.085Z,14.64
2023-04-19T12:07:36.971Z,14.55
2023-04-19T12:10:42.889Z,14.50
2023-04-19T12:13:49.104Z,14.33
2023-04-19T12:16:54.841Z,14.20
2023-04-19T12:20:01.046Z,14.01
2023-04-19T12:23:06.007Z,13.81
2023-04-19T12:26:12.305Z,13.78
2023-04-19T12:29:18.090Z,13.56
2023-04-19T12:32:25.411Z,13.48
2023-04-19T12:35:31.756Z,13.52
2023-04-19T12:38:36.960Z,13.63
2023-04-19T12:41:42.077Z,13.69
2023-04-19T12:44:47.039Z,13.54
2023-04-19T12:47:54.050Z,13.66
2023-04-19T12:50:59.895Z,13.79
2023-04-19T12:54:05.558Z,13.78
2023-04-19T12:57:09.721Z,13.78
2023-04-19T13:00:16.284Z,13.90
2023-04-19T13:03:22.408Z,13.88
2023-04-19T13:06:28.284Z,13.68
2023-04-19T13:09:34.612Z,13.86
2023-04-19T13:12:40.172Z,13.69
2023-04-19T13:15:45.786Z,13.49
2023-04-19T13:18:52.891Z,13.38
2023-04-19T13:21:59.309Z,13.29
2023-04-19T13:25:05.057Z,13.52
2023-04-19T13:28:11.117Z,13.44
2023-04-19T13:31:16.237Z,13.35
2023-04-19T13:34:21.050Z,13.44
2023-04-19T13:37:26.155Z,13.45
2023-04-19T13:40:32.334Z,13.36
2023-04-19T13:43:37.307Z,13.20
2023-04-19T13:46:42.309Z,13.29
2023-04-19T13:49:47.022Z,13.34
2023-04-19T13:52:52.844Z,13.33
2023-04-19T13:55:58.673Z,13.33
2023-04-19T13:59:04.452Z,13.34
2023-04-19T14:02:09.696Z,13.25
2023-04-19T14:05:15.451Z,13.16
2023-04-19T14:08:20.460Z,13.18
2023-04-19T14:11:25.347Z,13.10
2023-04-19T14:14:32.006Z,13.02
2023-04-19T14:17:37.969Z,12.96
2023-04-19T14:20:43.660Z,12.88
2023-04-19T14:23:49.082Z,13.17
2023-04-19T14:27:07.210Z,13.07
2023-04-19T14:30:02.086Z,13.23
2023-04-19T14:33:08.625Z,12.76
2023-04-19T14:36:14.970Z,12.98
2023-04-19T14:39:23.155Z,13.13
2023-04-19T14:42:30.976Z,13.09
2023-04-19T14:45:36.641Z,12.94
2023-04-19T14:48:41.896Z,12.84
2023-04-19T14:51:49.855Z,12.74
2023-04-19T14:54:55.150Z,12.75
2023-04-19T14:58:01.717Z,12.77
2023-04-19T15:01:06.742Z,12.77
2023-04-19T15:04:13.597Z,12.52
2023-04-19T15:07:19.699Z,12.60
2023-04-19T15:10:25.845Z,12.58
2023-04-19T15:13:32.863Z,12.41
2023-04-19T15:16:40.350Z,12.26
2023-04-19T15:19:45.199Z,12.06
2023-04-19T15:22:50.733Z,11.99
2023-04-19T15:25:56.870Z,12.24
2023-04-19T15:29:03.596Z,12.35
2023-04-19T15:32:09.742Z,12.01
2023-04-19T15:35:16.332Z,11.92
2023-04-19T15:38:21.939Z,11.80
2023-04-19T15:41:27.927Z,11.94
2023-04-19T15:44:33.803Z,11.76
2023-04-19T15:47:39.290Z,11.81
2023-04-19T15:50:45.166Z,11.58
2023-04-19T15:53:50.897Z,11.37
2023-04-19T15:56:57.498Z,11.35
2023-04-19T16:00:03.722Z,11.36
2023-04-19T16:03:11.269Z,11.05
2023-04-19T16:06:18.154Z,11.04
2023-04-19T16:09:23.569Z,11.13
2023-04-19T16:12:29.309Z,11.08
2023-04-19T16:15:34.649Z,11.07
2023-04-19T16:18:40.205Z,11.22
2023-04-19T16:21:46.333Z,11.10
2023-04-19T16:24:53.711Z,11.11
2023-04-19T16:28:01.282Z,10.51
2023-04-19T16:31:08.141Z,10.61
2023-04-19T16:34:14.685Z,11.10
2023-04-19T16:37:20.388Z,11.26
2023-04-19T16:40:26.028Z,11.17
2023-04-19T16:43:32.240Z,11.15
2023-04-19T16:46:37.546Z,10.93
2023-04-19T16:49:44.529Z,10.86
2023-04-19T16:52:50.179Z,11.02
2023-04-19T16:55:56.646Z,10.96
2023-04-19T16:59:05.736Z,10.88
2023-04-19T17:02:14.767Z,10.91
2023-04-19T17:05:22.823Z,10.97
2023-04-19T17:08:28.729Z,10.90
2023-04-19T17:11:33.906Z,10.97
2023-04-19T17:14:26.222Z,10.97
2023-04-19T17:17:33.147Z,10.41
2023-04-19T17:20:39.443Z,10.15
2023-04-19T17:23:45.549Z,10.16
2023-04-19T17:26:51.844Z,10.35
2023-04-19T17:29:58.596Z,10.24
2023-04-19T17:33:06.114Z,10.25
2023-04-19T17:36:28.422Z,10.44
2023-04-19T17:39:35.129Z,10.29
2023-04-19T17:42:33.873Z,10.20
2023-04-19T17:45:28.467Z,10.19
2023-04-19T17:48:32.889Z,10.17
2023-04-19T17:51:41.760Z,10.26
2023-04-19T17:54:44.048Z,10.24
2023-04-19T17:57:52.639Z,10.15
2023-04-19T18:01:00.835Z,10.37
2023-04-19T18:04:06.717Z,10.43
2023-04-19T18:07:13.540Z,10.67
2023-04-19T18:10:24.680Z,10.91
2023-04-19T18:13:31.804Z,10.61
2023-04-19T18:16:37.379Z,10.78
2023-04-19T18:19:35.619Z,10.67
2023-04-19T18:22:40.708Z,10.51
2023-04-19T18:25:46.680Z,10.46
2023-04-19T18:28:54.032Z,10.63
2023-04-19T18:31:52.276Z,10.54
2023-04-19T18:34:45.820Z,10.58
2023-04-19T18:37:50.961Z,10.54
2023-04-19T18:40:57.731Z,10.53
2023-04-19T18:44:25.797Z,10.74
2023-04-19T18:47:10.878Z,10.36
2023-04-19T18:50:19.071Z,10.33
2023-04-19T18:53:23.250Z,10.32
2023-04-19T18:57:03.771Z,10.40
2023-04-19T18:59:35.811Z,9.98
2023-04-19T19:02:44.006Z,10.28
2023-04-19T19:05:50.072Z,10.12
2023-04-19T19:08:57.890Z,10.13
2023-04-19T19:12:03.612Z,10.35
2023-04-19T19:15:08.673Z,10.61
2023-04-19T19:18:14.975Z,10.42
2023-04-19T19:21:20.650Z,10.53
2023-04-19T19:24:26.523Z,10.46
2023-04-19T19:27:25.320Z,10.29
2023-04-19T19:30:32.138Z,10.29
2023-04-19T19:33:39.964Z,10.18
2023-04-19T19:36:44.192Z,10.32
2023-04-19T19:39:52.219Z,10.18
2023-04-19T19:42:57.803Z,10.33
2023-04-19T19:46:03.079Z,10.16
2023-04-19T19:49:12.614Z,10.25
2023-04-19T19:52:15.238Z,10.36
2023-04-19T19:55:20.807Z,10.55
2023-04-19T19:58:46.271Z,10.61
2023-04-19T20:01:32.430Z,10.49
2023-04-19T20:04:38.131Z,10.53
2023-04-19T20:10:49.565Z,10.61
2023-04-19T20:13:55.099Z,10.67
2023-04-19T20:17:00.303Z,10.54
2023-04-19T20:20:06.923Z,10.61
2023-04-19T20:23:05.237Z,10.70
2023-04-19T20:25:58.122Z,10.81
2023-04-19T20:29:02.555Z,10.62
2023-04-19T20:32:07.378Z,10.64
2023-04-19T20:35:16.735Z,10.71
2023-04-19T20:38:22.616Z,10.91
2023-04-19T20:41:29.195Z,10.94
2023-04-19T20:44:34.638Z,10.79
2023-04-19T20:47:40.264Z,10.52
2023-04-19T20:50:46.338Z,10.56
2023-04-19T20:53:53.084Z,10.57
2023-04-19T20:56:58.985Z,10.56
2023-04-19T21:00:04.850Z,10.39
2023-04-19T21:03:10.291Z,10.64
2023-04-19T21:06:15.466Z,10.52
2023-04-19T21:09:20.241Z,10.39
2023-04-19T21:12:24.906Z,10.49
2023-04-19T21:15:30.059Z,10.59
2023-04-19T21:18:36.776Z,10.46
2023-04-19T21:21:41.843Z,10.42
2023-04-19T21:24:47.151Z,10.40
2023-04-19T21:27:52.220Z,10.51
2023-04-19T21:30:58.622Z,10.58
2023-04-19T21:34:05.339Z,10.59
2023-04-19T21:37:11.061Z,10.56
2023-04-19T21:40:16.030Z,10.45
2023-04-19T21:43:20.804Z,10.33
2023-04-19T21:46:26.032Z,10.38
2023-04-19T21:49:31.673Z,10.39
2023-04-19T21:52:35.739Z,10.47
2023-04-19T21:55:41.745Z,10.61
2023-04-19T21:58:47.735Z,10.61
2023-04-19T22:01:54.271Z,10.64
2023-04-19T22:05:00.680Z,10.77
2023-04-19T22:07:59.857Z,10.41
2023-04-19T22:11:07.237Z,10.54
2023-04-19T22:14:11.740Z,10.48
2023-04-19T22:17:16.573Z,10.52
2023-04-19T22:20:24.290Z,10.72
2023-04-19T22:23:30.485Z,10.77
2023-04-19T22:26:35.625Z,10.56
2023-04-19T22:29:43.024Z,10.55
2023-04-19T22:32:48.832Z,10.50
2023-04-19T22:35:54.628Z,10.63
2023-04-19T22:38:53.945Z,10.66
2023-04-19T22:42:00.131Z,10.48
2023-04-19T22:45:05.592Z,10.52
2023-04-19T22:48:11.196Z,10.55
2023-04-19T22:51:16.175Z,10.63
2023-04-19T22:54:22.788Z,10.65
2023-04-19T22:57:21.994Z,10.44
2023-04-19T23:00:28.212Z,10.43
2023-04-19T23:03:34.665Z,10.59
2023-04-19T23:06:41.246Z,10.80
2023-04-19T23:09:39.702Z,10.72
2023-04-19T23:12:26.097Z,10.51
2023-04-19T23:15:20.098Z,10.55
2023-04-19T23:18:06.722Z,10.65
2023-04-19T23:20:58.724Z,10.73
2023-04-19T23:23:45.596Z,10.65
2023-04-19T23:26:38.545Z,10.50
2023-04-19T23:29:43.658Z,10.53
2023-04-19T23:32:49.670Z,10.68
2023-04-19T23:35:54.679Z,10.68
2023-04-19T23:38:53.444Z,10.77
2023-04-19T23:41:46.272Z,10.96
2023-04-19T23:44:52.709Z,10.52
2023-04-19T23:47:59.366Z,10.57
2023-04-19T23:50:58.566Z,10.72
2023-04-19T23:54:04.818Z,10.49
2023-04-19T23:57:10.353Z,10.49
